FEN weather

Fernando de Noronha Airport
Fernando De Noronha, Pernambuco, Brazil

Public forecast

Using degrees Celsius for public forecast. Weather courtesy of forecast.io.

Current aviation weather report (METAR) for Fernando de Noronha Airport

Report is more than 6 hours old.

Retrieved 2020/07/13 21:00 UTC (10 hours ago):

SBFN 132100Z 12011KT 9999 SCT013 BKN050 26/24 Q1015

Aviation forecast (TAF) for Fernando de Noronha Airport

Retrieved 2020/07/14 06:00 UTC (1 hour ago):

TAF SBFN 140300Z 1406/1418 13012KT 9999 SCT022 TN25/1406Z TX28/1417Z RMK PAZ